Time,TemperatureF,DewpointF,PressureIn,WindDirection,WindDirectionDegrees,WindSpeedMPH,WindSpeedGustMPH,Humidity,HourlyPrecipIn,Conditions,Clouds,dailyrainin,SoftwareType,DateUTC
2013-10-23 00:00:00,55.2,52.6,29.80,WSW,248,1.0,-999.0,91,0.00,,,0.00,Wunderground v.1.15,2013-10-23 04:00:00,
2013-10-23 00:05:00,55.2,52.6,29.80,WSW,248,1.0,-999.0,91,0.00,,,0.00,Wunderground v.1.15,2013-10-23 04:05:00,
2013-10-23 00:10:00,55.1,52.5,29.80,WSW,248,0.0,-999.0,91,0.00,,,0.00,Wunderground v.1.15,2013-10-23 04:10:00,
2013-10-23 00:15:00,55.0,52.4,29.81,N/A,-737280,0.0,-999.0,91,0.00,,,0.00,Wunderground v.1.15,2013-10-23 04:15:00,
2013-10-23 00:20:00,54.9,52.3,29.80,WSW,248,0.0,-999.0,91,0.00,,,0.00,Wunderground v.1.15,2013-10-23 04:20:00,
2013-10-23 00:25:00,54.7,52.4,29.80,N/A,-737280,0.0,-999.0,92,0.00,,,0.00,Wunderground v.1.15,2013-10-23 04:25:00,
2013-10-23 00:30:00,54.6,52.0,29.80,WSW,248,0.0,-999.0,91,0.00,,,0.00,Wunderground v.1.15,2013-10-23 04:30:00,
2013-10-23 00:35:00,54.4,51.8,29.80,WSW,248,0.0,-999.0,91,0.00,,,0.00,Wunderground v.1.15,2013-10-23 04:35:00,
2013-10-23 00:40:00,54.3,52.0,29.79,WSW,248,0.0,-999.0,92,0.00,,,0.00,Wunderground v.1.15,2013-10-23 04:40:00,
2013-10-23 00:45:00,54.1,51.5,29.79,WSW,248,0.0,-999.0,91,0.00,,,0.00,Wunderground v.1.15,2013-10-23 04:45:00,
2013-10-23 00:50:00,53.9,51.3,29.79,WSW,248,0.0,-999.0,91,0.00,,,0.00,Wunderground v.1.15,2013-10-23 04:50:00,
2013-10-23 00:55:00,53.7,51.4,29.79,WSW,248,1.0,-999.0,92,0.00,,,0.00,Wunderground v.1.15,2013-10-23 04:55:00,
2013-10-23 01:00:00,53.8,51.5,29.79,WNW,293,2.0,-999.0,92,0.00,,,0.00,Wunderground v.1.15,2013-10-23 05:00:00,
2013-10-23 01:05:00,53.9,51.6,29.79,WNW,293,1.0,-999.0,92,0.00,,,0.00,Wunderground v.1.15,2013-10-23 05:05:00,
2013-10-23 01:10:00,53.8,51.5,29.79,West,270,1.0,-999.0,92,0.00,,,0.00,Wunderground v.1.15,2013-10-23 05:10:00,
2013-10-23 01:15:00,53.7,51.4,29.79,West,270,3.0,-999.0,92,0.00,,,0.00,Wunderground v.1.15,2013-10-23 05:15:00,
2013-10-23 01:20:00,53.6,51.3,29.79,West,270,2.0,-999.0,92,0.00,,,0.00,Wunderground v.1.15,2013-10-23 05:20:00,
2013-10-23 01:25:00,53.6,51.3,29.79,West,270,3.0,-999.0,92,0.00,,,0.00,Wunderground v.1.15,2013-10-23 05:25:00,
2013-10-23 01:30:00,53.7,51.4,29.78,West,270,3.0,-999.0,92,0.00,,,0.00,Wunderground v.1.15,2013-10-23 05:30:00,
2013-10-23 01:35:00,53.7,51.4,29.78,WSW,248,4.0,-999.0,92,0.00,,,0.00,Wunderground v.1.15,2013-10-23 05:35:00,
2013-10-23 01:40:00,53.7,51.4,29.78,WSW,248,2.0,-999.0,92,0.00,,,0.00,Wunderground v.1.15,2013-10-23 05:40:00,
2013-10-23 01:45:00,53.6,51.3,29.78,WSW,248,2.0,-999.0,92,0.00,,,0.00,Wunderground v.1.15,2013-10-23 05:45:00,
2013-10-23 01:50:00,53.5,51.2,29.78,WSW,248,1.0,-999.0,92,0.00,,,0.00,Wunderground v.1.15,2013-10-23 05:50:00,
2013-10-23 01:55:00,53.4,51.1,29.78,WSW,248,0.0,-999.0,92,0.00,,,0.00,Wunderground v.1.15,2013-10-23 05:55:00,
2013-10-23 02:00:00,53.3,51.0,29.78,WSW,248,0.0,-999.0,92,0.00,,,0.00,Wunderground v.1.15,2013-10-23 06:00:00,
2013-10-23 02:05:00,53.1,50.8,29.78,WSW,248,1.0,-999.0,92,0.00,,,0.00,Wunderground v.1.15,2013-10-23 06:05:00,
2013-10-23 02:10:00,53.0,50.7,29.78,WSW,248,1.0,-999.0,92,0.00,,,0.00,Wunderground v.1.15,2013-10-23 06:10:00,
2013-10-23 02:15:00,52.9,50.6,29.77,SW,225,1.0,-999.0,92,0.00,,,0.00,Wunderground v.1.15,2013-10-23 06:15:00,
2013-10-23 02:20:00,52.8,50.5,29.77,SW,225,0.0,-999.0,92,0.00,,,0.00,Wunderground v.1.15,2013-10-23 06:20:00,
2013-10-23 02:25:00,52.7,50.4,29.77,SW,225,0.0,-999.0,92,0.00,,,0.00,Wunderground v.1.15,2013-10-23 06:25:00,
2013-10-23 02:30:00,52.6,50.3,29.77,SW,225,0.0,-999.0,92,0.00,,,0.00,Wunderground v.1.15,2013-10-23 06:30:00,
2013-10-23 02:35:00,52.4,50.1,29.77,SW,225,1.0,-999.0,92,0.00,,,0.00,Wunderground v.1.15,2013-10-23 06:35:00,
2013-10-23 02:40:00,52.2,49.9,29.77,SW,225,0.0,-999.0,92,0.00,,,0.00,Wunderground v.1.15,2013-10-23 06:40:00,
2013-10-23 02:45:00,52.1,49.8,29.77,North,0,1.0,-999.0,92,0.00,,,0.00,Wunderground v.1.15,2013-10-23 06:45:00,
2013-10-23 02:50:00,52.1,49.8,29.77,NW,315,1.0,-999.0,92,0.00,,,0.00,Wunderground v.1.15,2013-10-23 06:50:00,
2013-10-23 02:55:00,52.2,49.9,29.77,NNE,23,0.0,-999.0,92,0.00,,,0.00,Wunderground v.1.15,2013-10-23 06:55:00,
2013-10-23 03:00:00,52.2,49.9,29.77,NNW,338,0.0,-999.0,92,0.00,,,0.00,Wunderground v.1.15,2013-10-23 07:00:00,
2013-10-23 03:05:00,52.2,49.9,29.77,NNW,338,0.0,-999.0,92,0.00,,,0.00,Wunderground v.1.15,2013-10-23 07:05:00,
2013-10-23 03:10:00,52.0,49.7,29.76,WNW,293,0.0,-999.0,92,0.00,,,0.00,Wunderground v.1.15,2013-10-23 07:10:00,
2013-10-23 03:15:00,51.8,49.5,29.77,WNW,293,0.0,-999.0,92,0.00,,,0.00,Wunderground v.1.15,2013-10-23 07:15:00,
2013-10-23 03:20:00,51.5,49.3,29.76,WNW,293,0.0,-999.0,92,0.00,,,0.00,Wunderground v.1.15,2013-10-23 07:20:00,
2013-10-23 03:25:00,51.2,49.0,29.76,WNW,293,0.0,-999.0,92,0.00,,,0.00,Wunderground v.1.15,2013-10-23 07:25:00,
2013-10-23 03:30:00,51.0,48.8,29.76,N/A,-737280,0.0,-999.0,92,0.00,,,0.00,Wunderground v.1.15,2013-10-23 07:30:00,
2013-10-23 03:35:00,50.8,48.6,29.76,N/A,-737280,0.0,-999.0,92,0.00,,,0.00,Wunderground v.1.15,2013-10-23 07:35:00,
2013-10-23 03:40:00,50.6,48.4,29.76,N/A,-737280,0.0,-999.0,92,0.00,,,0.00,Wunderground v.1.15,2013-10-23 07:40:00,
2013-10-23 03:45:00,50.5,48.3,29.75,WNW,293,0.0,-999.0,92,0.00,,,0.00,Wunderground v.1.15,2013-10-23 07:45:00,
2013-10-23 03:50:00,50.4,48.2,29.76,N/A,-737280,0.0,-999.0,92,0.00,,,0.00,Wunderground v.1.15,2013-10-23 07:50:00,
2013-10-23 03:55:00,50.4,48.2,29.76,WNW,293,0.0,-999.0,92,0.00,,,0.00,Wunderground v.1.15,2013-10-23 07:55:00,
2013-10-23 04:00:00,50.3,48.1,29.76,WNW,293,0.0,-999.0,92,0.00,,,0.00,Wunderground v.1.15,2013-10-23 08:00:00,
2013-10-23 04:05:00,50.3,48.1,29.76,WNW,293,0.0,-999.0,92,0.00,,,0.00,Wunderground v.1.15,2013-10-23 08:05:00,
2013-10-23 04:10:00,50.2,48.0,29.76,WNW,293,0.0,-999.0,92,0.00,,,0.00,Wunderground v.1.15,2013-10-23 08:10:00,
2013-10-23 04:15:00,50.2,48.0,29.76,WNW,293,1.0,-999.0,92,0.00,,,0.00,Wunderground v.1.15,2013-10-23 08:15:00,
2013-10-23 04:20:00,50.1,47.9,29.76,WNW,293,1.0,-999.0,92,0.00,,,0.00,Wunderground v.1.15,2013-10-23 08:20:00,
2013-10-23 04:25:00,49.9,47.7,29.76,WNW,293,1.0,-999.0,92,0.00,,,0.00,Wunderground v.1.15,2013-10-23 08:25:00,
2013-10-23 04:30:00,49.7,47.5,29.76,WNW,293,2.0,-999.0,92,0.00,,,0.00,Wunderground v.1.15,2013-10-23 08:30:00,
2013-10-23 04:35:00,49.6,47.4,29.76,WNW,293,1.0,-999.0,92,0.00,,,0.00,Wunderground v.1.15,2013-10-23 08:35:00,
2013-10-23 04:40:00,49.5,47.3,29.76,WNW,293,0.0,-999.0,92,0.00,,,0.00,Wunderground v.1.15,2013-10-23 08:40:00,
2013-10-23 04:45:00,49.5,47.3,29.76,NNE,23,1.0,-999.0,92,0.00,,,0.00,Wunderground v.1.15,2013-10-23 08:45:00,
2013-10-23 04:50:00,49.5,47.3,29.76,NE,45,1.0,-999.0,92,0.00,,,0.00,Wunderground v.1.15,2013-10-23 08:50:00,
2013-10-23 04:55:00,49.4,47.2,29.76,WNW,293,2.0,-999.0,92,0.00,,,0.00,Wunderground v.1.15,2013-10-23 08:55:00,
2013-10-23 05:00:00,49.5,47.3,29.76,WNW,293,1.0,-999.0,92,0.00,,,0.00,Wunderground v.1.15,2013-10-23 09:00:00,
2013-10-23 05:05:00,49.5,47.3,29.76,WNW,293,1.0,-999.0,92,0.00,,,0.00,Wunderground v.1.15,2013-10-23 09:05:00,
2013-10-23 05:10:00,49.5,47.3,29.76,WNW,293,1.0,-999.0,92,0.00,,,0.00,Wunderground v.1.15,2013-10-23 09:10:00,
2013-10-23 05:15:00,49.5,47.3,29.76,WNW,293,2.0,-999.0,92,0.00,,,0.00,Wunderground v.1.15,2013-10-23 09:15:00,
2013-10-23 05:20:00,49.7,47.2,29.76,WNW,293,2.0,-999.0,91,0.00,,,0.00,Wunderground v.1.15,2013-10-23 09:20:00,
2013-10-23 05:25:00,49.7,46.9,29.76,WNW,293,3.0,-999.0,90,0.00,,,0.00,Wunderground v.1.15,2013-10-23 09:25:00,
2013-10-23 05:30:00,49.7,46.9,29.76,West,270,2.0,-999.0,90,0.00,,,0.00,Wunderground v.1.15,2013-10-23 09:30:00,
2013-10-23 05:35:00,49.6,46.8,29.76,West,270,2.0,-999.0,90,0.00,,,0.00,Wunderground v.1.15,2013-10-23 09:35:00,
2013-10-23 05:40:00,49.4,46.6,29.77,West,270,1.0,-999.0,90,0.00,,,0.00,Wunderground v.1.15,2013-10-23 09:40:00,
2013-10-23 05:45:00,49.2,46.4,29.77,West,270,1.0,-999.0,90,0.00,,,0.00,Wunderground v.1.15,2013-10-23 09:45:00,
2013-10-23 05:50:00,49.1,46.3,29.77,West,270,2.0,-999.0,90,0.00,,,0.00,Wunderground v.1.15,2013-10-23 09:50:00,
2013-10-23 05:55:00,48.9,46.1,29.77,West,270,2.0,-999.0,90,0.00,,,0.00,Wunderground v.1.15,2013-10-23 09:55:00,
2013-10-23 06:00:00,48.8,46.0,29.77,West,270,2.0,-999.0,90,0.00,,,0.00,Wunderground v.1.15,2013-10-23 10:00:00,
2013-10-23 06:05:00,48.7,45.9,29.77,West,270,2.0,-999.0,90,0.00,,,0.00,Wunderground v.1.15,2013-10-23 10:05:00,
2013-10-23 06:10:00,48.5,45.7,29.77,West,270,2.0,-999.0,90,0.00,,,0.00,Wunderground v.1.15,2013-10-23 10:10:00,
2013-10-23 06:15:00,48.4,45.6,29.77,West,270,0.0,-999.0,90,0.00,,,0.00,Wunderground v.1.15,2013-10-23 10:15:00,
2013-10-23 06:20:00,48.4,45.9,29.77,West,270,0.0,-999.0,91,0.00,,,0.00,Wunderground v.1.15,2013-10-23 10:20:00,
2013-10-23 06:25:00,48.4,45.6,29.77,West,270,0.0,-999.0,90,0.00,,,0.00,Wunderground v.1.15,2013-10-23 10:25:00,
2013-10-23 06:30:00,48.3,45.5,29.77,West,270,0.0,-999.0,90,0.00,,,0.00,Wunderground v.1.15,2013-10-23 10:30:00,
2013-10-23 06:35:00,48.2,45.4,29.77,West,270,0.0,-999.0,90,0.00,,,0.00,Wunderground v.1.15,2013-10-23 10:35:00,
2013-10-23 06:40:00,48.1,45.3,29.78,West,270,1.0,-999.0,90,0.00,,,0.00,Wunderground v.1.15,2013-10-23 10:40:00,
2013-10-23 06:45:00,47.6,44.8,29.78,West,270,0.0,-999.0,90,0.00,,,0.00,Wunderground v.1.15,2013-10-23 10:45:00,
2013-10-23 06:50:00,47.1,44.3,29.78,West,270,0.0,-999.0,90,0.00,,,0.00,Wunderground v.1.15,2013-10-23 10:50:00,
2013-10-23 06:55:00,46.9,44.4,29.78,West,270,0.0,-999.0,91,0.00,,,0.00,Wunderground v.1.15,2013-10-23 10:55:00,
2013-10-23 07:00:00,46.8,44.3,29.79,West,270,1.0,-999.0,91,0.00,,,0.00,Wunderground v.1.15,2013-10-23 11:00:00,
2013-10-23 07:05:00,46.6,44.1,29.79,West,270,1.0,-999.0,91,0.00,,,0.00,Wunderground v.1.15,2013-10-23 11:05:00,
2013-10-23 07:10:00,46.5,44.0,29.79,West,270,1.0,-999.0,91,0.00,,,0.00,Wunderground v.1.15,2013-10-23 11:10:00,
2013-10-23 07:15:00,46.4,43.9,29.80,West,270,1.0,-999.0,91,0.00,,,0.00,Wunderground v.1.15,2013-10-23 11:15:00,
2013-10-23 07:20:00,46.2,43.7,29.79,West,270,0.0,-999.0,91,0.00,,,0.00,Wunderground v.1.15,2013-10-23 11:20:00,
2013-10-23 07:25:00,46.1,43.6,29.79,N/A,-737280,0.0,-999.0,91,0.00,,,0.00,Wunderground v.1.15,2013-10-23 11:25:00,
2013-10-23 07:30:00,45.9,43.4,29.79,West,270,1.0,-999.0,91,0.00,,,0.00,Wunderground v.1.15,2013-10-23 11:30:00,
2013-10-23 07:35:00,45.7,43.2,29.79,West,270,1.0,-999.0,91,0.00,,,0.00,Wunderground v.1.15,2013-10-23 11:35:00,
2013-10-23 07:40:00,45.4,42.9,29.79,N/A,-737280,0.0,-999.0,91,0.00,,,0.00,Wunderground v.1.15,2013-10-23 11:40:00,
2013-10-23 07:45:00,45.3,42.8,29.79,West,270,1.0,-999.0,91,0.00,,,0.00,Wunderground v.1.15,2013-10-23 11:45:00,
2013-10-23 07:50:00,45.3,42.8,29.79,West,270,0.0,-999.0,91,0.00,,,0.00,Wunderground v.1.15,2013-10-23 11:50:00,
2013-10-23 07:55:00,45.3,42.8,29.79,West,270,1.0,-999.0,91,0.00,,,0.00,Wunderground v.1.15,2013-10-23 11:55:00,
2013-10-23 08:00:00,45.3,42.8,29.79,West,270,1.0,-999.0,91,0.00,,,0.00,Wunderground v.1.15,2013-10-23 12:00:00,
2013-10-23 08:05:00,45.4,42.9,29.79,West,270,0.0,-999.0,91,0.00,,,0.00,Wunderground v.1.15,2013-10-23 12:05:00,
2013-10-23 08:10:00,45.5,43.3,29.79,West,270,0.0,-999.0,92,0.00,,,0.00,Wunderground v.1.15,2013-10-23 12:10:00,
2013-10-23 08:15:00,45.7,43.2,29.80,West,270,1.0,-999.0,91,0.00,,,0.00,Wunderground v.1.15,2013-10-23 12:15:00,
2013-10-23 08:20:00,45.9,43.4,29.80,WNW,293,1.0,-999.0,91,0.00,,,0.00,Wunderground v.1.15,2013-10-23 12:20:00,
2013-10-23 08:25:00,46.0,43.5,29.81,WNW,293,2.0,-999.0,91,0.00,,,0.00,Wunderground v.1.15,2013-10-23 12:25:00,
2013-10-23 08:30:00,46.3,43.8,29.81,West,270,1.0,-999.0,91,0.00,,,0.00,Wunderground v.1.15,2013-10-23 12:30:00,
2013-10-23 08:35:00,47.0,44.5,29.81,West,270,0.0,-999.0,91,0.00,,,0.00,Wunderground v.1.15,2013-10-23 12:35:00,
2013-10-23 08:40:00,47.7,45.2,29.81,West,270,1.0,-999.0,91,0.00,,,0.00,Wunderground v.1.15,2013-10-23 12:40:00,
2013-10-23 08:45:00,48.4,45.6,29.81,WSW,248,1.0,-999.0,90,0.00,,,0.00,Wunderground v.1.15,2013-10-23 12:45:00,
2013-10-23 08:50:00,49.0,46.2,29.81,WSW,248,0.0,-999.0,90,0.00,,,0.00,Wunderground v.1.15,2013-10-23 12:50:00,
2013-10-23 08:55:00,49.5,46.7,29.81,WSW,248,0.0,-999.0,90,0.00,,,0.00,Wunderground v.1.15,2013-10-23 12:55:00,
2013-10-23 09:00:00,50.1,47.0,29.81,WSW,248,1.0,-999.0,89,0.00,,,0.00,Wunderground v.1.15,2013-10-23 13:00:00,
2013-10-23 09:05:00,50.7,47.3,29.81,WSW,248,1.0,-999.0,88,0.00,,,0.00,Wunderground v.1.15,2013-10-23 13:05:00,
2013-10-23 09:10:00,51.5,47.8,29.81,WSW,248,2.0,-999.0,87,0.00,,,0.00,Wunderground v.1.15,2013-10-23 13:10:00,
2013-10-23 09:15:00,52.2,48.1,29.81,WSW,248,2.0,-999.0,86,0.00,,,0.00,Wunderground v.1.15,2013-10-23 13:15:00,
2013-10-23 09:20:00,52.8,48.1,29.81,WSW,248,3.0,-999.0,84,0.00,,,0.00,Wunderground v.1.15,2013-10-23 13:20:00,
2013-10-23 09:25:00,53.4,48.0,29.81,WSW,248,3.0,-999.0,82,0.00,,,0.00,Wunderground v.1.15,2013-10-23 13:25:00,
2013-10-23 09:30:00,54.1,48.4,29.81,WSW,248,3.0,-999.0,81,0.00,,,0.00,Wunderground v.1.15,2013-10-23 13:30:00,
2013-10-23 09:35:00,54.7,48.6,29.81,WSW,248,2.0,-999.0,80,0.00,,,0.00,Wunderground v.1.15,2013-10-23 13:35:00,
2013-10-23 09:40:00,55.4,48.3,29.81,SW,225,1.0,-999.0,77,0.00,,,0.00,Wunderground v.1.15,2013-10-23 13:40:00,
2013-10-23 09:45:00,56.2,49.1,29.81,SW,225,1.0,-999.0,77,0.00,,,0.00,Wunderground v.1.15,2013-10-23 13:45:00,
2013-10-23 09:50:00,56.9,48.7,29.81,WSW,248,2.0,-999.0,74,0.00,,,0.00,Wunderground v.1.15,2013-10-23 13:50:00,
2013-10-23 09:55:00,57.4,49.2,29.81,SW,225,1.0,-999.0,74,0.00,,,0.00,Wunderground v.1.15,2013-10-23 13:55:00,
2013-10-23 10:00:00,57.9,48.9,29.81,SW,225,3.0,-999.0,72,0.00,,,0.00,Wunderground v.1.15,2013-10-23 14:00:00,
2013-10-23 10:05:00,58.1,48.4,29.81,SW,225,3.0,-999.0,70,0.00,,,0.00,Wunderground v.1.15,2013-10-23 14:05:00,
2013-10-23 10:10:00,58.2,48.8,29.81,SW,225,4.0,-999.0,71,0.00,,,0.00,Wunderground v.1.15,2013-10-23 14:10:00,
2013-10-23 10:15:00,58.3,48.2,29.81,SW,225,4.0,-999.0,69,0.00,,,0.00,Wunderground v.1.15,2013-10-23 14:15:00,
2013-10-23 10:20:00,58.7,48.6,29.81,WSW,248,3.0,-999.0,69,0.00,,,0.00,Wunderground v.1.15,2013-10-23 14:20:00,
2013-10-23 10:25:00,59.1,48.5,29.81,West,270,4.0,-999.0,68,0.00,,,0.00,Wunderground v.1.15,2013-10-23 14:25:00,
2013-10-23 10:30:00,59.3,47.9,29.81,West,270,5.0,-999.0,66,0.00,,,0.00,Wunderground v.1.15,2013-10-23 14:30:00,
2013-10-23 10:35:00,59.5,48.1,29.82,WSW,248,5.0,-999.0,66,0.00,,,0.00,Wunderground v.1.15,2013-10-23 14:35:00,
2013-10-23 10:40:00,59.8,48.0,29.82,WSW,248,6.0,-999.0,65,0.00,,,0.00,Wunderground v.1.15,2013-10-23 14:40:00,
2013-10-23 10:45:00,59.8,48.4,29.81,WSW,248,5.0,-999.0,66,0.00,,,0.00,Wunderground v.1.15,2013-10-23 14:45:00,
2013-10-23 10:55:00,60.5,47.8,29.81,West,270,6.0,-999.0,63,0.00,,,0.00,Wunderground v.1.15,2013-10-23 14:55:00,
2013-10-23 11:00:00,60.7,46.7,29.81,WSW,248,5.0,-999.0,60,0.00,,,0.00,Wunderground v.1.15,2013-10-23 15:00:00,
2013-10-23 11:05:00,60.8,47.7,29.81,SW,225,6.0,-999.0,62,0.00,,,0.00,Wunderground v.1.15,2013-10-23 15:05:00,
2013-10-23 11:10:00,61.1,48.8,29.80,WSW,248,7.0,-999.0,64,0.00,,,0.00,Wunderground v.1.15,2013-10-23 15:10:00,
2013-10-23 11:15:00,61.4,44.6,29.80,West,270,9.0,-999.0,54,0.00,,,0.00,Wunderground v.1.15,2013-10-23 15:15:00,
2013-10-23 11:20:00,61.2,43.9,29.80,West,270,9.0,-999.0,53,0.00,,,0.00,Wunderground v.1.15,2013-10-23 15:20:00,
2013-10-23 11:25:00,61.2,43.9,29.80,West,270,9.0,-999.0,53,0.00,,,0.00,Wunderground v.1.15,2013-10-23 15:25:00,
2013-10-23 11:30:00,61.2,43.4,29.80,WSW,248,9.0,-999.0,52,0.00,,,0.00,Wunderground v.1.15,2013-10-23 15:30:00,
2013-10-23 11:35:00,61.3,43.5,29.80,West,270,9.0,-999.0,52,0.00,,,0.00,Wunderground v.1.15,2013-10-23 15:35:00,
2013-10-23 11:40:00,61.6,43.3,29.80,WSW,248,7.0,-999.0,51,0.00,,,0.00,Wunderground v.1.15,2013-10-23 15:40:00,
2013-10-23 11:45:00,62.4,43.0,29.80,West,270,7.0,-999.0,49,0.00,,,0.00,Wunderground v.1.15,2013-10-23 15:45:00,
2013-10-23 11:50:00,63.0,38.9,29.80,West,270,9.0,-999.0,41,0.00,,,0.00,Wunderground v.1.15,2013-10-23 15:50:00,
2013-10-23 11:55:00,62.9,38.2,29.80,WNW,293,10.0,-999.0,40,0.00,,,0.00,Wunderground v.1.15,2013-10-23 15:55:00,
2013-10-23 12:00:00,62.8,37.5,29.80,West,270,12.0,-999.0,39,0.00,,,0.00,Wunderground v.1.15,2013-10-23 16:00:00,
2013-10-23 12:05:00,62.9,36.9,29.80,West,270,12.0,-999.0,38,0.00,,,0.00,Wunderground v.1.15,2013-10-23 16:05:00,
2013-10-23 12:10:00,62.8,38.1,29.81,West,270,9.0,-999.0,40,0.00,,,0.00,Wunderground v.1.15,2013-10-23 16:10:00,
2013-10-23 12:15:00,63.2,37.8,29.81,WNW,293,11.0,-999.0,39,0.00,,,0.00,Wunderground v.1.15,2013-10-23 16:15:00,
2013-10-23 12:20:00,63.4,38.6,29.81,West,270,10.0,-999.0,40,0.00,,,0.00,Wunderground v.1.15,2013-10-23 16:20:00,
2013-10-23 12:25:00,63.8,36.3,29.81,West,270,10.0,-999.0,36,0.00,,,0.00,Wunderground v.1.15,2013-10-23 16:25:00,
2013-10-23 12:30:00,63.9,36.4,29.80,West,270,11.0,-999.0,36,0.00,,,0.00,Wunderground v.1.15,2013-10-23 16:30:00,
2013-10-23 12:35:00,64.0,35.0,29.80,WSW,248,13.0,-999.0,34,0.00,,,0.00,Wunderground v.1.15,2013-10-23 16:35:00,
2013-10-23 12:40:00,63.8,37.7,29.80,West,270,9.0,-999.0,38,0.00,,,0.00,Wunderground v.1.15,2013-10-23 16:40:00,
2013-10-23 12:45:00,64.4,34.6,29.80,West,270,11.0,-999.0,33,0.00,,,0.00,Wunderground v.1.15,2013-10-23 16:45:00,
2013-10-23 12:50:00,64.6,37.7,29.80,West,270,8.0,-999.0,37,0.00,,,0.00,Wunderground v.1.15,2013-10-23 16:50:00,
2013-10-23 12:55:00,65.0,40.1,29.80,West,270,9.0,-999.0,40,0.00,,,0.00,Wunderground v.1.15,2013-10-23 16:55:00,
2013-10-23 13:00:00,65.6,37.2,29.80,West,270,9.0,-999.0,35,0.00,,,0.00,Wunderground v.1.15,2013-10-23 17:00:00,
2013-10-23 13:05:00,65.6,36.5,29.80,WSW,248,9.0,-999.0,34,0.00,,,0.00,Wunderground v.1.15,2013-10-23 17:05:00,
2013-10-23 13:10:00,65.5,35.6,29.80,West,270,11.0,-999.0,33,0.00,,,0.00,Wunderground v.1.15,2013-10-23 17:10:00,
2013-10-23 13:15:00,65.3,35.4,29.80,WNW,293,10.0,-999.0,33,0.00,,,0.00,Wunderground v.1.15,2013-10-23 17:15:00,
2013-10-23 13:20:00,65.1,36.8,29.80,West,270,10.0,-999.0,35,0.00,,,0.00,Wunderground v.1.15,2013-10-23 17:20:00,
2013-10-23 13:25:00,65.1,37.5,29.80,WNW,293,9.0,-999.0,36,0.00,,,0.00,Wunderground v.1.15,2013-10-23 17:25:00,
2013-10-23 13:30:00,65.2,36.8,29.80,WSW,248,11.0,-999.0,35,0.00,,,0.00,Wunderground v.1.15,2013-10-23 17:30:00,
2013-10-23 13:35:00,65.1,37.5,29.80,WSW,248,10.0,-999.0,36,0.00,,,0.00,Wunderground v.1.15,2013-10-23 17:35:00,
2013-10-23 13:40:00,65.1,36.8,29.81,WSW,248,11.0,-999.0,35,0.00,,,0.00,Wunderground v.1.15,2013-10-23 17:40:00,
2013-10-23 13:45:00,65.0,37.4,29.80,WSW,248,10.0,-999.0,36,0.00,,,0.00,Wunderground v.1.15,2013-10-23 17:45:00,
2013-10-23 13:50:00,65.2,38.3,29.80,WSW,248,9.0,-999.0,37,0.00,,,0.00,Wunderground v.1.15,2013-10-23 17:50:00,
2013-10-23 13:55:00,65.5,37.8,29.80,West,270,11.0,-999.0,36,0.00,,,0.00,Wunderground v.1.15,2013-10-23 17:55:00,
2013-10-23 14:00:00,65.4,34.8,29.80,West,270,11.0,-999.0,32,0.00,,,0.00,Wunderground v.1.15,2013-10-23 18:00:00,
2013-10-23 14:05:00,65.3,35.4,29.80,WNW,293,11.0,-999.0,33,0.00,,,0.00,Wunderground v.1.15,2013-10-23 18:05:00,
2013-10-23 14:10:00,65.1,35.3,29.80,WNW,293,10.0,-999.0,33,0.00,,,0.00,Wunderground v.1.15,2013-10-23 18:10:00,
2013-10-23 14:15:00,64.8,35.8,29.80,WNW,293,13.0,-999.0,34,0.00,,,0.00,Wunderground v.1.15,2013-10-23 18:15:00,
2013-10-23 14:20:00,64.7,36.4,29.80,West,270,11.0,-999.0,35,0.00,,,0.00,Wunderground v.1.15,2013-10-23 18:20:00,
2013-10-23 14:25:00,64.8,35.8,29.80,West,270,11.0,-999.0,34,0.00,,,0.00,Wunderground v.1.15,2013-10-23 18:25:00,
2013-10-23 14:30:00,64.6,35.6,29.80,West,270,13.0,-999.0,34,0.00,,,0.00,Wunderground v.1.15,2013-10-23 18:30:00,
2013-10-23 14:35:00,64.5,36.2,29.80,West,270,11.0,-999.0,35,0.00,,,0.00,Wunderground v.1.15,2013-10-23 18:35:00,
2013-10-23 14:40:00,64.6,37.0,29.80,West,270,10.0,-999.0,36,0.00,,,0.00,Wunderground v.1.15,2013-10-23 18:40:00,
2013-10-23 14:45:00,65.0,38.1,29.80,West,270,9.0,-999.0,37,0.00,,,0.00,Wunderground v.1.15,2013-10-23 18:45:00,
2013-10-23 14:50:00,65.5,37.1,29.80,West,270,7.0,-999.0,35,0.00,,,0.00,Wunderground v.1.15,2013-10-23 18:50:00,
2013-10-23 14:55:00,65.9,38.2,29.81,West,270,9.0,-999.0,36,0.00,,,0.00,Wunderground v.1.15,2013-10-23 18:55:00,
2013-10-23 15:00:00,65.8,38.1,29.81,WSW,248,10.0,-999.0,36,0.00,,,0.00,Wunderground v.1.15,2013-10-23 19:00:00,
2013-10-23 15:05:00,65.3,37.6,29.81,West,270,11.0,-999.0,36,0.00,,,0.00,Wunderground v.1.15,2013-10-23 19:05:00,
2013-10-23 15:10:00,65.2,36.8,29.82,WNW,293,9.0,-999.0,35,0.00,,,0.00,Wunderground v.1.15,2013-10-23 19:10:00,
2013-10-23 15:15:00,65.3,36.2,29.81,WNW,293,10.0,-999.0,34,0.00,,,0.00,Wunderground v.1.15,2013-10-23 19:15:00,
2013-10-23 15:20:00,65.2,36.1,29.82,WNW,293,8.0,-999.0,34,0.00,,,0.00,Wunderground v.1.15,2013-10-23 19:20:00,
2013-10-23 15:25:00,65.0,35.9,29.82,WNW,293,9.0,-999.0,34,0.00,,,0.00,Wunderground v.1.15,2013-10-23 19:25:00,
2013-10-23 15:30:00,64.9,36.6,29.82,West,270,7.0,-999.0,35,0.00,,,0.00,Wunderground v.1.15,2013-10-23 19:30:00,
2013-10-23 15:35:00,65.1,36.8,29.82,West,270,8.0,-999.0,35,0.00,,,0.00,Wunderground v.1.15,2013-10-23 19:35:00,
2013-10-23 15:40:00,65.2,36.8,29.82,West,270,7.0,-999.0,35,0.00,,,0.00,Wunderground v.1.15,2013-10-23 19:40:00,
2013-10-23 15:45:00,65.3,36.9,29.82,West,270,7.0,-999.0,35,0.00,,,0.00,Wunderground v.1.15,2013-10-23 19:45:00,
2013-10-23 15:50:00,65.2,37.6,29.83,West,270,7.0,-999.0,36,0.00,,,0.00,Wunderground v.1.15,2013-10-23 19:50:00,
2013-10-23 15:55:00,65.2,36.1,29.83,West,270,8.0,-999.0,34,0.00,,,0.00,Wunderground v.1.15,2013-10-23 19:55:00,
2013-10-23 16:00:00,64.9,35.8,29.84,WNW,293,8.0,-999.0,34,0.00,,,0.00,Wunderground v.1.15,2013-10-23 20:00:00,
2013-10-23 16:05:00,64.7,36.4,29.84,WNW,293,5.0,-999.0,35,0.00,,,0.00,Wunderground v.1.15,2013-10-23 20:05:00,
2013-10-23 16:10:00,64.7,36.4,29.83,West,270,6.0,-999.0,35,0.00,,,0.00,Wunderground v.1.15,2013-10-23 20:10:00,
2013-10-23 16:15:00,64.7,38.5,29.84,West,270,4.0,-999.0,38,0.00,,,0.00,Wunderground v.1.15,2013-10-23 20:15:00,
2013-10-23 16:20:00,64.4,38.9,29.84,NNE,23,3.0,-999.0,39,0.00,,,0.00,Wunderground v.1.15,2013-10-23 20:20:00,
2013-10-23 16:25:00,64.0,38.5,29.85,NE,45,2.0,-999.0,39,0.00,,,0.00,Wunderground v.1.15,2013-10-23 20:25:00,
2013-10-23 16:30:00,63.9,39.1,29.85,NNE,23,1.0,-999.0,40,0.00,,,0.00,Wunderground v.1.15,2013-10-23 20:30:00,
2013-10-23 16:35:00,63.7,39.5,29.85,NNE,23,2.0,-999.0,41,0.00,,,0.00,Wunderground v.1.15,2013-10-23 20:35:00,
2013-10-23 16:40:00,63.3,38.6,29.85,NNE,23,3.0,-999.0,40,0.00,,,0.00,Wunderground v.1.15,2013-10-23 20:40:00,
2013-10-23 16:45:00,62.9,38.2,29.85,NE,45,3.0,-999.0,40,0.00,,,0.00,Wunderground v.1.15,2013-10-23 20:45:00,
2013-10-23 16:50:00,62.4,37.7,29.86,NNE,23,4.0,-999.0,40,0.00,,,0.00,Wunderground v.1.15,2013-10-23 20:50:00,
2013-10-23 16:55:00,61.9,37.3,29.86,NNE,23,3.0,-999.0,40,0.00,,,0.00,Wunderground v.1.15,2013-10-23 20:55:00,
2013-10-23 17:00:00,61.5,37.6,29.86,NE,45,4.0,-999.0,41,0.00,,,0.00,Wunderground v.1.15,2013-10-23 21:00:00,
2013-10-23 17:05:00,61.1,37.2,29.87,NNE,23,2.0,-999.0,41,0.00,,,0.00,Wunderground v.1.15,2013-10-23 21:05:00,
2013-10-23 17:10:00,61.1,36.6,29.87,NNE,23,3.0,-999.0,40,0.00,,,0.00,Wunderground v.1.15,2013-10-23 21:10:00,
2013-10-23 17:15:00,60.7,36.8,29.87,NE,45,3.0,-999.0,41,0.00,,,0.00,Wunderground v.1.15,2013-10-23 21:15:00,
2013-10-23 17:20:00,60.3,36.5,29.88,NE,45,4.0,-999.0,41,0.00,,,0.00,Wunderground v.1.15,2013-10-23 21:20:00,
2013-10-23 17:25:00,59.9,36.7,29.88,NE,45,3.0,-999.0,42,0.00,,,0.00,Wunderground v.1.15,2013-10-23 21:25:00,
2013-10-23 17:30:00,59.6,36.5,29.88,NE,45,2.0,-999.0,42,0.00,,,0.00,Wunderground v.1.15,2013-10-23 21:30:00,
2013-10-23 17:35:00,59.3,36.8,29.89,NNE,23,1.0,-999.0,43,0.00,,,0.00,Wunderground v.1.15,2013-10-23 21:35:00,
2013-10-23 17:40:00,59.2,37.3,29.89,NNE,23,1.0,-999.0,44,0.00,,,0.00,Wunderground v.1.15,2013-10-23 21:40:00,
2013-10-23 17:45:00,59.1,36.6,29.89,NNE,23,3.0,-999.0,43,0.00,,,0.00,Wunderground v.1.15,2013-10-23 21:45:00,
2013-10-23 17:50:00,58.6,36.2,29.89,NNE,23,3.0,-999.0,43,0.00,,,0.00,Wunderground v.1.15,2013-10-23 21:50:00,
2013-10-23 17:55:00,58.2,36.4,29.90,NNE,23,1.0,-999.0,44,0.00,,,0.00,Wunderground v.1.15,2013-10-23 21:55:00,
2013-10-23 18:00:00,57.9,36.7,29.90,North,0,1.0,-999.0,45,0.00,,,0.00,Wunderground v.1.15,2013-10-23 22:00:00,
2013-10-23 18:05:00,57.7,35.9,29.90,NNE,23,1.0,-999.0,44,0.00,,,0.00,Wunderground v.1.15,2013-10-23 22:05:00,
2013-10-23 18:10:00,57.3,35.6,29.91,NNE,23,1.0,-999.0,44,0.00,,,0.00,Wunderground v.1.15,2013-10-23 22:10:00,
2013-10-23 18:15:00,56.8,35.7,29.91,WNW,293,1.0,-999.0,45,0.00,,,0.00,Wunderground v.1.15,2013-10-23 22:15:00,
2013-10-23 18:20:00,56.5,36.0,29.91,North,0,1.0,-999.0,46,0.00,,,0.00,Wunderground v.1.15,2013-10-23 22:20:00,
2013-10-23 18:25:00,56.0,36.0,29.91,NNE,23,1.0,-999.0,47,0.00,,,0.00,Wunderground v.1.15,2013-10-23 22:25:00,
2013-10-23 18:30:00,55.6,36.2,29.92,North,0,0.0,-999.0,48,0.00,,,0.00,Wunderground v.1.15,2013-10-23 22:30:00,
2013-10-23 18:35:00,55.3,36.5,29.92,N/A,-737280,0.0,-999.0,49,0.00,,,0.00,Wunderground v.1.15,2013-10-23 22:35:00,
2013-10-23 18:40:00,55.0,35.7,29.92,NNE,23,1.0,-999.0,48,0.00,,,0.00,Wunderground v.1.15,2013-10-23 22:40:00,
2013-10-23 18:45:00,54.2,35.4,29.92,NNE,23,2.0,-999.0,49,0.00,,,0.00,Wunderground v.1.15,2013-10-23 22:45:00,
2013-10-23 18:50:00,53.4,35.2,29.93,NE,45,2.0,-999.0,50,0.00,,,0.00,Wunderground v.1.15,2013-10-23 22:50:00,
2013-10-23 18:55:00,52.8,34.7,29.93,NE,45,2.0,-999.0,50,0.00,,,0.00,Wunderground v.1.15,2013-10-23 22:55:00,
2013-10-23 19:00:00,52.3,34.7,29.94,NNE,23,1.0,-999.0,51,0.00,,,0.00,Wunderground v.1.15,2013-10-23 23:00:00,
2013-10-23 19:05:00,51.9,34.8,29.94,NNE,23,2.0,-999.0,52,0.00,,,0.00,Wunderground v.1.15,2013-10-23 23:05:00,
2013-10-23 19:10:00,51.5,34.9,29.95,NNE,23,1.0,-999.0,53,0.00,,,0.00,Wunderground v.1.15,2013-10-23 23:10:00,
2013-10-23 19:15:00,51.2,34.6,29.95,North,0,1.0,-999.0,53,0.00,,,0.00,Wunderground v.1.15,2013-10-23 23:15:00,
2013-10-23 19:20:00,50.8,34.3,29.95,NNE,23,1.0,-999.0,53,0.00,,,0.00,Wunderground v.1.15,2013-10-23 23:20:00,
2013-10-23 19:25:00,50.5,34.0,29.95,NNE,23,1.0,-999.0,53,0.00,,,0.00,Wunderground v.1.15,2013-10-23 23:25:00,
2013-10-23 19:30:00,50.2,34.2,29.96,NNE,23,2.0,-999.0,54,0.00,,,0.00,Wunderground v.1.15,2013-10-23 23:30:00,
2013-10-23 19:35:00,50.0,34.0,29.96,NNE,23,2.0,-999.0,54,0.00,,,0.00,Wunderground v.1.15,2013-10-23 23:35:00,
2013-10-23 19:40:00,49.7,34.2,29.96,NE,45,2.0,-999.0,55,0.00,,,0.00,Wunderground v.1.15,2013-10-23 23:40:00,
2013-10-23 19:45:00,49.5,34.4,29.96,NE,45,1.0,-999.0,56,0.00,,,0.00,Wunderground v.1.15,2013-10-23 23:45:00,
2013-10-23 19:50:00,49.2,33.7,29.97,NNE,23,2.0,-999.0,55,0.00,,,0.00,Wunderground v.1.15,2013-10-23 23:50:00,
2013-10-23 19:55:00,49.0,34.0,29.97,NNE,23,2.0,-999.0,56,0.00,,,0.00,Wunderground v.1.15,2013-10-23 23:55:00,
2013-10-23 20:00:00,48.8,33.8,29.98,NE,45,1.0,-999.0,56,0.00,,,0.00,Wunderground v.1.15,2013-10-24 00:00:00,
2013-10-23 20:05:00,48.6,33.6,29.98,NE,45,4.0,-999.0,56,0.00,,,0.00,Wunderground v.1.15,2013-10-24 00:05:00,
2013-10-23 20:10:00,48.4,33.4,29.98,NNE,23,3.0,-999.0,56,0.00,,,0.00,Wunderground v.1.15,2013-10-24 00:10:00,
2013-10-23 20:15:00,48.3,33.8,29.98,NNE,23,1.0,-999.0,57,0.00,,,0.00,Wunderground v.1.15,2013-10-24 00:15:00,
2013-10-23 20:20:00,48.1,33.1,29.98,NNE,23,2.0,-999.0,56,0.00,,,0.00,Wunderground v.1.15,2013-10-24 00:20:00,
2013-10-23 20:25:00,47.9,33.4,29.99,NNE,23,0.0,-999.0,57,0.00,,,0.00,Wunderground v.1.15,2013-10-24 00:25:00,
2013-10-23 20:30:00,47.7,33.6,29.99,NNE,23,1.0,-999.0,58,0.00,,,0.00,Wunderground v.1.15,2013-10-24 00:30:00,
2013-10-23 20:35:00,47.4,33.4,29.99,NE,45,1.0,-999.0,58,0.00,,,0.00,Wunderground v.1.15,2013-10-24 00:35:00,
2013-10-23 20:40:00,47.2,33.2,29.99,NNE,23,1.0,-999.0,58,0.00,,,0.00,Wunderground v.1.15,2013-10-24 00:40:00,
2013-10-23 20:45:00,47.0,33.4,30.00,NNE,23,1.0,-999.0,59,0.00,,,0.00,Wunderground v.1.15,2013-10-24 00:45:00,
2013-10-23 20:50:00,46.8,33.2,29.99,NNE,23,1.0,-999.0,59,0.00,,,0.00,Wunderground v.1.15,2013-10-24 00:50:00,
2013-10-23 20:55:00,46.7,33.1,30.00,NNE,23,2.0,-999.0,59,0.00,,,0.00,Wunderground v.1.15,2013-10-24 00:55:00,
2013-10-23 21:00:00,46.5,32.9,30.00,NE,45,2.0,-999.0,59,0.00,,,0.00,Wunderground v.1.15,2013-10-24 01:00:00,
2013-10-23 21:05:00,46.4,33.3,30.00,NNE,23,2.0,-999.0,60,0.00,,,0.00,Wunderground v.1.15,2013-10-24 01:05:00,
2013-10-23 21:10:00,46.2,33.1,30.00,East,90,0.0,-999.0,60,0.00,,,0.00,Wunderground v.1.15,2013-10-24 01:10:00,
2013-10-23 21:15:00,46.1,33.0,30.01,East,90,0.0,-999.0,60,0.00,,,0.00,Wunderground v.1.15,2013-10-24 01:15:00,
2013-10-23 21:20:00,45.9,33.2,30.01,NNE,23,1.0,-999.0,61,0.00,,,0.00,Wunderground v.1.15,2013-10-24 01:20:00,
2013-10-23 21:25:00,45.8,33.1,30.01,North,0,0.0,-999.0,61,0.00,,,0.00,Wunderground v.1.15,2013-10-24 01:25:00,
2013-10-23 21:30:00,45.7,33.0,30.01,North,0,0.0,-999.0,61,0.00,,,0.00,Wunderground v.1.15,2013-10-24 01:30:00,
2013-10-23 21:35:00,45.6,32.9,30.01,NE,45,1.0,-999.0,61,0.00,,,0.00,Wunderground v.1.15,2013-10-24 01:35:00,
2013-10-23 21:40:00,45.4,32.7,30.01,NNE,23,0.0,-999.0,61,0.00,,,0.00,Wunderground v.1.15,2013-10-24 01:40:00,
2013-10-23 21:45:00,45.3,32.6,30.01,NNE,23,1.0,-999.0,61,0.00,,,0.00,Wunderground v.1.15,2013-10-24 01:45:00,
2013-10-23 21:50:00,45.1,32.4,30.02,NNE,23,2.0,-999.0,61,0.00,,,0.00,Wunderground v.1.15,2013-10-24 01:50:00,
2013-10-23 21:55:00,45.1,32.4,30.02,NNE,23,0.0,-999.0,61,0.00,,,0.00,Wunderground v.1.15,2013-10-24 01:55:00,
2013-10-23 22:00:00,45.0,32.3,30.02,NNE,23,1.0,-999.0,61,0.00,,,0.00,Wunderground v.1.15,2013-10-24 02:00:00,
2013-10-23 22:05:00,44.9,31.8,30.02,NNE,23,2.0,-999.0,60,0.00,,,0.00,Wunderground v.1.15,2013-10-24 02:05:00,
2013-10-23 22:10:00,44.9,32.7,30.02,NNE,23,1.0,-999.0,62,0.00,,,0.00,Wunderground v.1.15,2013-10-24 02:10:00,
2013-10-23 22:15:00,44.8,32.6,30.02,NNE,23,1.0,-999.0,62,0.00,,,0.00,Wunderground v.1.15,2013-10-24 02:15:00,
2013-10-23 22:20:00,44.7,32.5,30.03,NNE,23,0.0,-999.0,62,0.00,,,0.00,Wunderground v.1.15,2013-10-24 02:20:00,
2013-10-23 22:25:00,44.6,32.4,30.03,NNE,23,2.0,-999.0,62,0.00,,,0.00,Wunderground v.1.15,2013-10-24 02:25:00,
2013-10-23 22:30:00,44.7,32.1,30.03,NNE,23,1.0,-999.0,61,0.00,,,0.00,Wunderground v.1.15,2013-10-24 02:30:00,
2013-10-23 22:35:00,44.7,32.1,30.03,NE,45,0.0,-999.0,61,0.00,,,0.00,Wunderground v.1.15,2013-10-24 02:35:00,
2013-10-23 22:40:00,44.7,32.1,30.04,N/A,-737280,0.0,-999.0,61,0.00,,,0.00,Wunderground v.1.15,2013-10-24 02:40:00,
2013-10-23 22:45:00,44.7,31.7,30.04,NNE,23,0.0,-999.0,60,0.00,,,0.00,Wunderground v.1.15,2013-10-24 02:45:00,
2013-10-23 22:50:00,44.6,32.0,30.05,NNE,23,0.0,-999.0,61,0.00,,,0.00,Wunderground v.1.15,2013-10-24 02:50:00,
2013-10-23 22:55:00,44.5,32.3,30.05,NNE,23,0.0,-999.0,62,0.00,,,0.00,Wunderground v.1.15,2013-10-24 02:55:00,
2013-10-23 23:00:00,44.3,32.1,30.05,NNE,23,0.0,-999.0,62,0.00,,,0.00,Wunderground v.1.15,2013-10-24 03:00:00,
2013-10-23 23:05:00,44.3,32.1,30.05,NNE,23,1.0,-999.0,62,0.00,,,0.00,Wunderground v.1.15,2013-10-24 03:05:00,
2013-10-23 23:10:00,44.3,32.1,30.05,NNE,23,1.0,-999.0,62,0.00,,,0.00,Wunderground v.1.15,2013-10-24 03:10:00,
2013-10-23 23:15:00,44.3,31.7,30.05,NNE,23,1.0,-999.0,61,0.00,,,0.00,Wunderground v.1.15,2013-10-24 03:15:00,
2013-10-23 23:20:00,44.4,32.2,30.05,NNE,23,1.0,-999.0,62,0.00,,,0.00,Wunderground v.1.15,2013-10-24 03:20:00,
2013-10-23 23:25:00,44.4,32.2,30.05,NE,45,1.0,-999.0,62,0.00,,,0.00,Wunderground v.1.15,2013-10-24 03:25:00,
2013-10-23 23:30:00,44.3,32.1,30.05,NNE,23,0.0,-999.0,62,0.00,,,0.00,Wunderground v.1.15,2013-10-24 03:30:00,
2013-10-23 23:35:00,44.2,32.4,30.06,East,90,0.0,-999.0,63,0.00,,,0.00,Wunderground v.1.15,2013-10-24 03:35:00,
2013-10-23 23:40:00,44.1,32.3,30.06,East,90,0.0,-999.0,63,0.00,,,0.00,Wunderground v.1.15,2013-10-24 03:40:00,
2013-10-23 23:45:00,43.9,32.1,30.06,NW,315,0.0,-999.0,63,0.00,,,0.00,Wunderground v.1.15,2013-10-24 03:45:00,
2013-10-23 23:50:00,43.8,32.0,30.06,NW,315,0.0,-999.0,63,0.00,,,0.00,Wunderground v.1.15,2013-10-24 03:50:00,
2013-10-23 23:55:00,43.6,31.8,30.07,North,0,0.0,-999.0,63,0.00,,,0.00,Wunderground v.1.15,2013-10-24 03:55:00,